sensor_id;sensor_type;location;lat;lon;timestamp;P1;durP1;ratioP1;P2;durP2;ratioP2
7965;SDS011;4028;43.272;26.932;2022-12-13T00:00:36;3.40;;;1.60;;
7965;SDS011;4028;43.272;26.932;2022-12-13T00:03:02;1.27;;;1.17;;
7965;SDS011;4028;43.272;26.932;2022-12-13T00:05:27;1.03;;;1.00;;
7965;SDS011;4028;43.272;26.932;2022-12-13T00:07:53;1.60;;;1.43;;
7965;SDS011;4028;43.272;26.932;2022-12-13T00:10:18;1.30;;;1.10;;
7965;SDS011;4028;43.272;26.932;2022-12-13T00:12:44;1.20;;;1.10;;
7965;SDS011;4028;43.272;26.932;2022-12-13T00:15:10;1.20;;;1.10;;
7965;SDS011;4028;43.272;26.932;2022-12-13T00:17:35;1.20;;;1.10;;
7965;SDS011;4028;43.272;26.932;2022-12-13T00:20:01;1.67;;;1.10;;
7965;SDS011;4028;43.272;26.932;2022-12-13T00:22:27;1.23;;;1.13;;
7965;SDS011;4028;43.272;26.932;2022-12-13T00:24:53;1.30;;;1.20;;
7965;SDS011;4028;43.272;26.932;2022-12-13T00:27:20;0.90;;;0.90;;
7965;SDS011;4028;43.272;26.932;2022-12-13T00:29:46;1.57;;;1.23;;
7965;SDS011;4028;43.272;26.932;2022-12-13T00:32:11;1.30;;;1.20;;
7965;SDS011;4028;43.272;26.932;2022-12-13T00:34:37;1.30;;;1.20;;
7965;SDS011;4028;43.272;26.932;2022-12-13T00:37:02;1.33;;;1.10;;
7965;SDS011;4028;43.272;26.932;2022-12-13T00:39:28;1.40;;;1.30;;
7965;SDS011;4028;43.272;26.932;2022-12-13T00:41:53;1.37;;;1.20;;
7965;SDS011;4028;43.272;26.932;2022-12-13T00:44:19;1.90;;;1.60;;
7965;SDS011;4028;43.272;26.932;2022-12-13T00:46:44;1.50;;;1.30;;
7965;SDS011;4028;43.272;26.932;2022-12-13T00:49:11;1.60;;;1.20;;
7965;SDS011;4028;43.272;26.932;2022-12-13T00:51:37;1.10;;;1.00;;
7965;SDS011;4028;43.272;26.932;2022-12-13T00:54:04;1.13;;;1.03;;
7965;SDS011;4028;43.272;26.932;2022-12-13T00:56:30;1.20;;;1.10;;
7965;SDS011;4028;43.272;26.932;2022-12-13T00:58:57;1.40;;;1.30;;
7965;SDS011;4028;43.272;26.932;2022-12-13T01:01:27;1.30;;;1.20;;
7965;SDS011;4028;43.272;26.932;2022-12-13T01:03:54;1.30;;;1.20;;
7965;SDS011;4028;43.272;26.932;2022-12-13T01:06:27;1.40;;;1.30;;
7965;SDS011;4028;43.272;26.932;2022-12-13T01:08:58;1.40;;;1.30;;
7965;SDS011;4028;43.272;26.932;2022-12-13T01:11:24;1.30;;;1.20;;
7965;SDS011;4028;43.272;26.932;2022-12-13T01:13:50;1.73;;;1.63;;
7965;SDS011;4028;43.272;26.932;2022-12-13T01:16:16;1.67;;;1.57;;
7965;SDS011;4028;43.272;26.932;2022-12-13T01:18:42;1.70;;;1.60;;
7965;SDS011;4028;43.272;26.932;2022-12-13T01:21:10;1.60;;;1.50;;
7965;SDS011;4028;43.272;26.932;2022-12-13T01:23:38;1.50;;;1.40;;
7965;SDS011;4028;43.272;26.932;2022-12-13T01:26:04;1.70;;;1.60;;
7965;SDS011;4028;43.272;26.932;2022-12-13T01:28:31;2.57;;;1.90;;
7965;SDS011;4028;43.272;26.932;2022-12-13T01:30:58;1.80;;;1.70;;
7965;SDS011;4028;43.272;26.932;2022-12-13T01:33:26;2.33;;;2.00;;
7965;SDS011;4028;43.272;26.932;2022-12-13T01:35:53;2.20;;;2.00;;
7965;SDS011;4028;43.272;26.932;2022-12-13T01:38:18;2.33;;;2.07;;
7965;SDS011;4028;43.272;26.932;2022-12-13T01:40:45;2.67;;;2.23;;
7965;SDS011;4028;43.272;26.932;2022-12-13T01:43:15;2.27;;;2.00;;
7965;SDS011;4028;43.272;26.932;2022-12-13T01:45:41;2.50;;;2.30;;
7965;SDS011;4028;43.272;26.932;2022-12-13T01:48:15;3.23;;;2.50;;
7965;SDS011;4028;43.272;26.932;2022-12-13T01:50:47;2.53;;;2.30;;
7965;SDS011;4028;43.272;26.932;2022-12-13T01:53:18;3.23;;;2.93;;
7965;SDS011;4028;43.272;26.932;2022-12-13T01:55:48;4.00;;;3.10;;
7965;SDS011;4028;43.272;26.932;2022-12-13T01:58:18;3.57;;;3.20;;
7965;SDS011;4028;43.272;26.932;2022-12-13T02:00:44;4.20;;;3.47;;
7965;SDS011;4028;43.272;26.932;2022-12-13T02:03:11;4.33;;;3.70;;
7965;SDS011;4028;43.272;26.932;2022-12-13T02:05:41;4.47;;;3.40;;
7965;SDS011;4028;43.272;26.932;2022-12-13T02:08:10;4.17;;;3.77;;
7965;SDS011;4028;43.272;26.932;2022-12-13T02:10:38;3.90;;;3.47;;
7965;SDS011;4028;43.272;26.932;2022-12-13T02:13:04;4.83;;;3.67;;
7965;SDS011;4028;43.272;26.932;2022-12-13T02:15:53;5.90;;;4.17;;
7965;SDS011;4028;43.272;26.932;2022-12-13T02:31:37;6.13;;;5.13;;
7965;SDS011;4028;43.272;26.932;2022-12-13T02:34:25;8.83;;;6.57;;
7965;SDS011;4028;43.272;26.932;2022-12-13T02:37:06;6.87;;;5.70;;
7965;SDS011;4028;43.272;26.932;2022-12-13T02:39:41;6.23;;;5.07;;
7965;SDS011;4028;43.272;26.932;2022-12-13T02:42:30;6.80;;;5.70;;
7965;SDS011;4028;43.272;26.932;2022-12-13T02:45:06;6.77;;;5.20;;
7965;SDS011;4028;43.272;26.932;2022-12-13T02:47:36;7.63;;;5.60;;
7965;SDS011;4028;43.272;26.932;2022-12-13T02:50:05;6.37;;;5.53;;
7965;SDS011;4028;43.272;26.932;2022-12-13T02:52:32;6.40;;;5.47;;
7965;SDS011;4028;43.272;26.932;2022-12-13T02:54:58;7.60;;;5.47;;
7965;SDS011;4028;43.272;26.932;2022-12-13T02:57:31;8.23;;;6.10;;
7965;SDS011;4028;43.272;26.932;2022-12-13T03:00:06;6.87;;;5.40;;
7965;SDS011;4028;43.272;26.932;2022-12-13T03:02:54;9.73;;;6.60;;
7965;SDS011;4028;43.272;26.932;2022-12-13T03:11:19;7.00;;;5.73;;
7965;SDS011;4028;43.272;26.932;2022-12-13T03:18:53;5.83;;;4.83;;
7965;SDS011;4028;43.272;26.932;2022-12-13T03:21:21;7.37;;;6.00;;
7965;SDS011;4028;43.272;26.932;2022-12-13T03:23:47;7.80;;;5.80;;
7965;SDS011;4028;43.272;26.932;2022-12-13T03:26:14;7.47;;;5.87;;
7965;SDS011;4028;43.272;26.932;2022-12-13T03:28:43;7.93;;;5.87;;
7965;SDS011;4028;43.272;26.932;2022-12-13T03:31:08;9.13;;;6.20;;
7965;SDS011;4028;43.272;26.932;2022-12-13T03:33:34;8.03;;;6.10;;
7965;SDS011;4028;43.272;26.932;2022-12-13T03:35:59;8.20;;;5.87;;
7965;SDS011;4028;43.272;26.932;2022-12-13T03:38:26;6.40;;;5.23;;
7965;SDS011;4028;43.272;26.932;2022-12-13T03:40:55;8.80;;;6.23;;
7965;SDS011;4028;43.272;26.932;2022-12-13T03:43:24;7.23;;;5.60;;
7965;SDS011;4028;43.272;26.932;2022-12-13T03:45:50;11.17;;;5.80;;
7965;SDS011;4028;43.272;26.932;2022-12-13T03:48:16;7.13;;;5.67;;
7965;SDS011;4028;43.272;26.932;2022-12-13T03:50:42;6.30;;;5.50;;
7965;SDS011;4028;43.272;26.932;2022-12-13T03:53:07;7.13;;;5.27;;
7965;SDS011;4028;43.272;26.932;2022-12-13T03:55:33;6.83;;;5.50;;
7965;SDS011;4028;43.272;26.932;2022-12-13T03:57:58;6.53;;;5.17;;
7965;SDS011;4028;43.272;26.932;2022-12-13T04:00:24;6.23;;;5.27;;
7965;SDS011;4028;43.272;26.932;2022-12-13T04:02:49;7.90;;;5.93;;
7965;SDS011;4028;43.272;26.932;2022-12-13T04:05:15;7.53;;;5.67;;
7965;SDS011;4028;43.272;26.932;2022-12-13T04:07:41;7.60;;;5.73;;
7965;SDS011;4028;43.272;26.932;2022-12-13T04:10:07;7.03;;;5.17;;
7965;SDS011;4028;43.272;26.932;2022-12-13T04:12:33;7.80;;;5.37;;
7965;SDS011;4028;43.272;26.932;2022-12-13T04:15:17;8.40;;;5.77;;
7965;SDS011;4028;43.272;26.932;2022-12-13T04:17:42;10.07;;;6.37;;
7965;SDS011;4028;43.272;26.932;2022-12-13T04:20:08;7.97;;;5.87;;
7965;SDS011;4028;43.272;26.932;2022-12-13T04:22:34;7.97;;;6.17;;
7965;SDS011;4028;43.272;26.932;2022-12-13T04:25:00;6.27;;;5.43;;
7965;SDS011;4028;43.272;26.932;2022-12-13T04:27:25;9.97;;;5.80;;
7965;SDS011;4028;43.272;26.932;2022-12-13T04:29:51;8.43;;;6.10;;
7965;SDS011;4028;43.272;26.932;2022-12-13T04:32:16;8.33;;;6.40;;
7965;SDS011;4028;43.272;26.932;2022-12-13T04:34:41;8.50;;;6.40;;
7965;SDS011;4028;43.272;26.932;2022-12-13T04:37:07;9.60;;;6.33;;
7965;SDS011;4028;43.272;26.932;2022-12-13T04:39:33;7.73;;;6.03;;
7965;SDS011;4028;43.272;26.932;2022-12-13T04:41:58;8.47;;;5.93;;
7965;SDS011;4028;43.272;26.932;2022-12-13T04:44:24;8.50;;;6.60;;
7965;SDS011;4028;43.272;26.932;2022-12-13T04:46:49;8.00;;;5.67;;
7965;SDS011;4028;43.272;26.932;2022-12-13T04:49:15;8.47;;;6.17;;
7965;SDS011;4028;43.272;26.932;2022-12-13T04:51:40;8.83;;;6.07;;
7965;SDS011;4028;43.272;26.932;2022-12-13T04:54:06;7.33;;;5.57;;
7965;SDS011;4028;43.272;26.932;2022-12-13T04:56:32;8.80;;;6.30;;
7965;SDS011;4028;43.272;26.932;2022-12-13T04:58:57;8.23;;;6.17;;
7965;SDS011;4028;43.272;26.932;2022-12-13T05:01:23;8.33;;;5.90;;
7965;SDS011;4028;43.272;26.932;2022-12-13T05:03:48;10.23;;;6.43;;
7965;SDS011;4028;43.272;26.932;2022-12-13T05:06:14;7.63;;;5.93;;
7965;SDS011;4028;43.272;26.932;2022-12-13T05:08:40;8.90;;;6.10;;
7965;SDS011;4028;43.272;26.932;2022-12-13T05:11:06;8.80;;;5.83;;
7965;SDS011;4028;43.272;26.932;2022-12-13T05:13:32;7.40;;;5.80;;
7965;SDS011;4028;43.272;26.932;2022-12-13T05:15:59;8.37;;;6.07;;
7965;SDS011;4028;43.272;26.932;2022-12-13T05:18:26;8.17;;;5.93;;
7965;SDS011;4028;43.272;26.932;2022-12-13T05:20:52;6.73;;;5.43;;
7965;SDS011;4028;43.272;26.932;2022-12-13T05:23:19;8.73;;;6.30;;
7965;SDS011;4028;43.272;26.932;2022-12-13T05:25:45;8.67;;;5.93;;
7965;SDS011;4028;43.272;26.932;2022-12-13T05:28:11;8.70;;;6.17;;
7965;SDS011;4028;43.272;26.932;2022-12-13T05:30:38;8.43;;;5.90;;
7965;SDS011;4028;43.272;26.932;2022-12-13T05:33:04;8.47;;;6.03;;
7965;SDS011;4028;43.272;26.932;2022-12-13T05:35:29;8.33;;;5.40;;
7965;SDS011;4028;43.272;26.932;2022-12-13T05:37:55;7.63;;;5.27;;
7965;SDS011;4028;43.272;26.932;2022-12-13T05:40:26;7.90;;;5.57;;
7965;SDS011;4028;43.272;26.932;2022-12-13T05:42:53;8.03;;;6.10;;
7965;SDS011;4028;43.272;26.932;2022-12-13T05:45:19;7.97;;;5.93;;
7965;SDS011;4028;43.272;26.932;2022-12-13T05:47:45;8.30;;;5.97;;
7965;SDS011;4028;43.272;26.932;2022-12-13T05:50:11;9.20;;;6.30;;
7965;SDS011;4028;43.272;26.932;2022-12-13T05:52:38;7.53;;;5.50;;
7965;SDS011;4028;43.272;26.932;2022-12-13T05:55:03;7.97;;;6.53;;
7965;SDS011;4028;43.272;26.932;2022-12-13T05:57:29;7.93;;;5.20;;
7965;SDS011;4028;43.272;26.932;2022-12-13T05:59:55;11.80;;;6.50;;
7965;SDS011;4028;43.272;26.932;2022-12-13T06:02:21;6.90;;;6.00;;
7965;SDS011;4028;43.272;26.932;2022-12-13T06:04:47;7.70;;;5.83;;
7965;SDS011;4028;43.272;26.932;2022-12-13T06:07:13;8.60;;;6.10;;
7965;SDS011;4028;43.272;26.932;2022-12-13T06:09:39;8.00;;;5.77;;
7965;SDS011;4028;43.272;26.932;2022-12-13T06:12:04;8.83;;;6.40;;
7965;SDS011;4028;43.272;26.932;2022-12-13T06:14:30;8.57;;;6.33;;
7965;SDS011;4028;43.272;26.932;2022-12-13T06:16:55;8.63;;;6.30;;
7965;SDS011;4028;43.272;26.932;2022-12-13T06:19:21;8.67;;;6.53;;
7965;SDS011;4028;43.272;26.932;2022-12-13T06:21:47;8.20;;;6.37;;
7965;SDS011;4028;43.272;26.932;2022-12-13T06:24:14;10.73;;;6.73;;
7965;SDS011;4028;43.272;26.932;2022-12-13T06:26:40;9.43;;;6.47;;
7965;SDS011;4028;43.272;26.932;2022-12-13T06:29:06;15.87;;;7.73;;
7965;SDS011;4028;43.272;26.932;2022-12-13T06:31:32;7.87;;;6.03;;
7965;SDS011;4028;43.272;26.932;2022-12-13T06:34:00;8.70;;;5.80;;
7965;SDS011;4028;43.272;26.932;2022-12-13T06:36:26;8.83;;;6.03;;
7965;SDS011;4028;43.272;26.932;2022-12-13T06:38:52;9.53;;;5.73;;
7965;SDS011;4028;43.272;26.932;2022-12-13T06:41:17;9.33;;;6.30;;
7965;SDS011;4028;43.272;26.932;2022-12-13T06:43:43;8.50;;;6.27;;
7965;SDS011;4028;43.272;26.932;2022-12-13T06:46:10;7.47;;;5.83;;
7965;SDS011;4028;43.272;26.932;2022-12-13T06:48:36;8.73;;;6.00;;
7965;SDS011;4028;43.272;26.932;2022-12-13T06:51:02;7.50;;;6.17;;
7965;SDS011;4028;43.272;26.932;2022-12-13T06:53:28;8.30;;;6.50;;
7965;SDS011;4028;43.272;26.932;2022-12-13T06:55:54;7.77;;;6.20;;
7965;SDS011;4028;43.272;26.932;2022-12-13T06:58:20;9.17;;;5.43;;
7965;SDS011;4028;43.272;26.932;2022-12-13T07:00:46;7.10;;;5.77;;
7965;SDS011;4028;43.272;26.932;2022-12-13T07:03:11;9.93;;;6.50;;
7965;SDS011;4028;43.272;26.932;2022-12-13T07:05:37;10.03;;;6.20;;
7965;SDS011;4028;43.272;26.932;2022-12-13T07:08:03;9.57;;;6.37;;
7965;SDS011;4028;43.272;26.932;2022-12-13T07:10:28;9.57;;;6.53;;
7965;SDS011;4028;43.272;26.932;2022-12-13T07:12:55;8.60;;;6.07;;
7965;SDS011;4028;43.272;26.932;2022-12-13T07:15:21;8.20;;;6.00;;
7965;SDS011;4028;43.272;26.932;2022-12-13T07:17:50;8.60;;;5.70;;
7965;SDS011;4028;43.272;26.932;2022-12-13T07:20:16;7.23;;;5.87;;
7965;SDS011;4028;43.272;26.932;2022-12-13T07:22:43;10.40;;;6.93;;
7965;SDS011;4028;43.272;26.932;2022-12-13T07:25:09;9.27;;;5.93;;
7965;SDS011;4028;43.272;26.932;2022-12-13T07:27:35;7.10;;;5.67;;
7965;SDS011;4028;43.272;26.932;2022-12-13T07:30:01;10.23;;;6.73;;
7965;SDS011;4028;43.272;26.932;2022-12-13T07:32:26;9.13;;;6.17;;
7965;SDS011;4028;43.272;26.932;2022-12-13T07:34:52;7.03;;;5.93;;
7965;SDS011;4028;43.272;26.932;2022-12-13T07:37:17;9.37;;;6.40;;
7965;SDS011;4028;43.272;26.932;2022-12-13T07:39:43;9.10;;;6.10;;
7965;SDS011;4028;43.272;26.932;2022-12-13T07:42:09;7.20;;;5.87;;
7965;SDS011;4028;43.272;26.932;2022-12-13T07:44:34;8.77;;;6.43;;
7965;SDS011;4028;43.272;26.932;2022-12-13T07:47:00;8.80;;;6.10;;
7965;SDS011;4028;43.272;26.932;2022-12-13T07:49:25;8.57;;;6.30;;
7965;SDS011;4028;43.272;26.932;2022-12-13T07:51:51;8.00;;;6.23;;
7965;SDS011;4028;43.272;26.932;2022-12-13T07:54:16;7.37;;;5.90;;
7965;SDS011;4028;43.272;26.932;2022-12-13T07:56:42;7.77;;;5.77;;
7965;SDS011;4028;43.272;26.932;2022-12-13T07:59:08;6.50;;;5.37;;
7965;SDS011;4028;43.272;26.932;2022-12-13T08:01:34;7.23;;;5.80;;
7965;SDS011;4028;43.272;26.932;2022-12-13T08:04:00;8.20;;;5.97;;
7965;SDS011;4028;43.272;26.932;2022-12-13T08:06:29;11.33;;;6.53;;
7965;SDS011;4028;43.272;26.932;2022-12-13T08:08:59;9.60;;;6.70;;
7965;SDS011;4028;43.272;26.932;2022-12-13T08:11:24;10.03;;;7.43;;
7965;SDS011;4028;43.272;26.932;2022-12-13T08:13:50;10.67;;;7.33;;
7965;SDS011;4028;43.272;26.932;2022-12-13T08:16:17;7.37;;;6.00;;
7965;SDS011;4028;43.272;26.932;2022-12-13T08:18:43;10.17;;;6.80;;
7965;SDS011;4028;43.272;26.932;2022-12-13T08:21:11;9.60;;;6.77;;
7965;SDS011;4028;43.272;26.932;2022-12-13T08:23:36;8.37;;;6.33;;
7965;SDS011;4028;43.272;26.932;2022-12-13T08:26:02;10.03;;;6.80;;
7965;SDS011;4028;43.272;26.932;2022-12-13T08:28:29;10.40;;;7.37;;
7965;SDS011;4028;43.272;26.932;2022-12-13T08:31:01;9.57;;;6.60;;
7965;SDS011;4028;43.272;26.932;2022-12-13T08:33:27;8.97;;;6.90;;
7965;SDS011;4028;43.272;26.932;2022-12-13T08:35:54;8.00;;;6.33;;
7965;SDS011;4028;43.272;26.932;2022-12-13T08:38:19;8.47;;;6.47;;
7965;SDS011;4028;43.272;26.932;2022-12-13T08:40:44;10.57;;;6.50;;
7965;SDS011;4028;43.272;26.932;2022-12-13T08:43:10;9.60;;;6.70;;
7965;SDS011;4028;43.272;26.932;2022-12-13T08:45:36;9.70;;;6.87;;
7965;SDS011;4028;43.272;26.932;2022-12-13T08:48:01;9.87;;;7.50;;
7965;SDS011;4028;43.272;26.932;2022-12-13T08:50:27;11.10;;;7.23;;
7965;SDS011;4028;43.272;26.932;2022-12-13T08:52:54;10.07;;;7.70;;
7965;SDS011;4028;43.272;26.932;2022-12-13T08:55:19;11.80;;;7.33;;
7965;SDS011;4028;43.272;26.932;2022-12-13T08:57:45;9.30;;;6.53;;
7965;SDS011;4028;43.272;26.932;2022-12-13T09:00:12;10.53;;;7.53;;
7965;SDS011;4028;43.272;26.932;2022-12-13T09:02:40;8.17;;;6.07;;
7965;SDS011;4028;43.272;26.932;2022-12-13T09:05:06;11.87;;;6.67;;
7965;SDS011;4028;43.272;26.932;2022-12-13T09:07:33;7.97;;;6.57;;
7965;SDS011;4028;43.272;26.932;2022-12-13T09:10:00;14.27;;;7.67;;
7965;SDS011;4028;43.272;26.932;2022-12-13T09:12:25;9.30;;;6.23;;
7965;SDS011;4028;43.272;26.932;2022-12-13T09:14:51;9.17;;;7.20;;
7965;SDS011;4028;43.272;26.932;2022-12-13T09:17:17;11.83;;;7.63;;
7965;SDS011;4028;43.272;26.932;2022-12-13T09:19:42;8.23;;;6.93;;
7965;SDS011;4028;43.272;26.932;2022-12-13T09:22:08;9.77;;;7.50;;
7965;SDS011;4028;43.272;26.932;2022-12-13T09:24:33;11.53;;;7.73;;
7965;SDS011;4028;43.272;26.932;2022-12-13T09:26:59;11.93;;;8.20;;
7965;SDS011;4028;43.272;26.932;2022-12-13T09:29:24;8.93;;;7.70;;
7965;SDS011;4028;43.272;26.932;2022-12-13T09:31:50;11.57;;;8.10;;
7965;SDS011;4028;43.272;26.932;2022-12-13T09:34:16;12.30;;;7.73;;
7965;SDS011;4028;43.272;26.932;2022-12-13T09:36:41;10.03;;;7.10;;
7965;SDS011;4028;43.272;26.932;2022-12-13T09:39:07;9.03;;;7.00;;
7965;SDS011;4028;43.272;26.932;2022-12-13T09:41:45;8.90;;;6.57;;
7965;SDS011;4028;43.272;26.932;2022-12-13T09:44:21;10.00;;;6.67;;
7965;SDS011;4028;43.272;26.932;2022-12-13T09:46:47;10.43;;;7.07;;
7965;SDS011;4028;43.272;26.932;2022-12-13T09:49:31;8.80;;;6.93;;
7965;SDS011;4028;43.272;26.932;2022-12-13T09:52:00;8.33;;;6.27;;
7965;SDS011;4028;43.272;26.932;2022-12-13T09:54:27;9.20;;;6.67;;
7965;SDS011;4028;43.272;26.932;2022-12-13T09:56:54;9.23;;;6.77;;
7965;SDS011;4028;43.272;26.932;2022-12-13T09:59:25;10.50;;;6.90;;
7965;SDS011;4028;43.272;26.932;2022-12-13T10:01:54;9.80;;;6.73;;
7965;SDS011;4028;43.272;26.932;2022-12-13T10:04:21;8.93;;;7.37;;
7965;SDS011;4028;43.272;26.932;2022-12-13T10:06:51;8.00;;;7.03;;
7965;SDS011;4028;43.272;26.932;2022-12-13T10:09:17;8.20;;;6.20;;
7965;SDS011;4028;43.272;26.932;2022-12-13T10:11:47;11.73;;;7.60;;
7965;SDS011;4028;43.272;26.932;2022-12-13T10:14:31;8.93;;;7.03;;
7965;SDS011;4028;43.272;26.932;2022-12-13T10:17:05;10.63;;;6.60;;
7965;SDS011;4028;43.272;26.932;2022-12-13T10:19:38;9.63;;;6.90;;
7965;SDS011;4028;43.272;26.932;2022-12-13T10:22:06;9.10;;;6.17;;
7965;SDS011;4028;43.272;26.932;2022-12-13T10:24:56;7.73;;;6.47;;
7965;SDS011;4028;43.272;26.932;2022-12-13T10:27:36;10.37;;;7.70;;
7965;SDS011;4028;43.272;26.932;2022-12-13T10:30:07;11.13;;;7.80;;
7965;SDS011;4028;43.272;26.932;2022-12-13T10:32:42;10.00;;;7.30;;
7965;SDS011;4028;43.272;26.932;2022-12-13T10:35:24;8.87;;;7.03;;
7965;SDS011;4028;43.272;26.932;2022-12-13T10:37:59;8.73;;;6.77;;
7965;SDS011;4028;43.272;26.932;2022-12-13T10:40:45;11.57;;;7.30;;
7965;SDS011;4028;43.272;26.932;2022-12-13T10:43:22;10.00;;;7.20;;
7965;SDS011;4028;43.272;26.932;2022-12-13T10:53:27;10.17;;;7.43;;
7965;SDS011;4028;43.272;26.932;2022-12-13T10:55:58;11.37;;;9.07;;
7965;SDS011;4028;43.272;26.932;2022-12-13T10:58:32;11.40;;;6.30;;
7965;SDS011;4028;43.272;26.932;2022-12-13T11:01:10;10.13;;;7.67;;
7965;SDS011;4028;43.272;26.932;2022-12-13T11:03:41;9.33;;;6.27;;
7965;SDS011;4028;43.272;26.932;2022-12-13T11:06:14;7.70;;;6.13;;
7965;SDS011;4028;43.272;26.932;2022-12-13T11:08:42;8.93;;;6.30;;
7965;SDS011;4028;43.272;26.932;2022-12-13T11:11:08;8.33;;;6.07;;
7965;SDS011;4028;43.272;26.932;2022-12-13T11:13:36;11.60;;;7.17;;
7965;SDS011;4028;43.272;26.932;2022-12-13T11:16:26;14.33;;;7.07;;
7965;SDS011;4028;43.272;26.932;2022-12-13T11:18:58;9.83;;;8.17;;
7965;SDS011;4028;43.272;26.932;2022-12-13T11:21:28;6.70;;;5.77;;
7965;SDS011;4028;43.272;26.932;2022-12-13T11:23:55;8.63;;;6.00;;
7965;SDS011;4028;43.272;26.932;2022-12-13T11:26:24;8.17;;;5.90;;
7965;SDS011;4028;43.272;26.932;2022-12-13T11:35:12;7.37;;;4.97;;
7965;SDS011;4028;43.272;26.932;2022-12-13T11:40:20;6.47;;;5.17;;
7965;SDS011;4028;43.272;26.932;2022-12-13T11:51:04;6.87;;;5.23;;
7965;SDS011;4028;43.272;26.932;2022-12-13T11:58:41;9.67;;;5.73;;
7965;SDS011;4028;43.272;26.932;2022-12-13T12:01:15;9.13;;;5.73;;
7965;SDS011;4028;43.272;26.932;2022-12-13T12:03:49;11.13;;;5.27;;
7965;SDS011;4028;43.272;26.932;2022-12-13T12:06:42;6.90;;;5.23;;
7965;SDS011;4028;43.272;26.932;2022-12-13T12:09:16;7.97;;;5.43;;
7965;SDS011;4028;43.272;26.932;2022-12-13T12:11:47;7.47;;;5.60;;
7965;SDS011;4028;43.272;26.932;2022-12-13T12:16:58;6.97;;;5.30;;
7965;SDS011;4028;43.272;26.932;2022-12-13T12:19:25;7.10;;;4.90;;
7965;SDS011;4028;43.272;26.932;2022-12-13T12:22:01;9.90;;;5.53;;
7965;SDS011;4028;43.272;26.932;2022-12-13T12:24:44;10.13;;;5.43;;
7965;SDS011;4028;43.272;26.932;2022-12-13T12:30:19;6.77;;;5.50;;
7965;SDS011;4028;43.272;26.932;2022-12-13T12:43:31;7.00;;;5.57;;
7965;SDS011;4028;43.272;26.932;2022-12-13T13:05:11;9.03;;;6.80;;
7965;SDS011;4028;43.272;26.932;2022-12-13T13:07:46;7.10;;;5.63;;
7965;SDS011;4028;43.272;26.932;2022-12-13T13:10:16;9.20;;;6.20;;
7965;SDS011;4028;43.272;26.932;2022-12-13T13:12:43;8.80;;;5.77;;
7965;SDS011;4028;43.272;26.932;2022-12-13T13:17:57;7.40;;;5.70;;
7965;SDS011;4028;43.272;26.932;2022-12-13T13:20:24;7.77;;;6.07;;
7965;SDS011;4028;43.272;26.932;2022-12-13T13:22:51;8.47;;;5.67;;
7965;SDS011;4028;43.272;26.932;2022-12-13T13:28:01;9.83;;;5.77;;
7965;SDS011;4028;43.272;26.932;2022-12-13T13:30:38;9.23;;;5.80;;
7965;SDS011;4028;43.272;26.932;2022-12-13T13:36:07;9.33;;;5.37;;
7965;SDS011;4028;43.272;26.932;2022-12-13T13:38:49;7.43;;;4.97;;
7965;SDS011;4028;43.272;26.932;2022-12-13T13:47:16;7.37;;;6.10;;
7965;SDS011;4028;43.272;26.932;2022-12-13T13:50:00;7.30;;;6.10;;
7965;SDS011;4028;43.272;26.932;2022-12-13T13:55:28;11.03;;;6.80;;
7965;SDS011;4028;43.272;26.932;2022-12-13T14:09:10;8.83;;;7.00;;
7965;SDS011;4028;43.272;26.932;2022-12-13T14:23:09;8.00;;;5.77;;
7965;SDS011;4028;43.272;26.932;2022-12-13T14:31:14;10.13;;;7.27;;
7965;SDS011;4028;43.272;26.932;2022-12-13T14:34:00;10.83;;;6.97;;
7965;SDS011;4028;43.272;26.932;2022-12-13T14:36:30;10.03;;;7.17;;
7965;SDS011;4028;43.272;26.932;2022-12-13T14:39:20;11.60;;;7.70;;
7965;SDS011;4028;43.272;26.932;2022-12-13T14:41:46;10.57;;;8.00;;
7965;SDS011;4028;43.272;26.932;2022-12-13T14:44:14;9.30;;;7.13;;
7965;SDS011;4028;43.272;26.932;2022-12-13T14:46:47;16.40;;;8.67;;
7965;SDS011;4028;43.272;26.932;2022-12-13T14:49:17;11.30;;;8.17;;
7965;SDS011;4028;43.272;26.932;2022-12-13T14:51:43;12.70;;;9.13;;
7965;SDS011;4028;43.272;26.932;2022-12-13T14:54:18;10.60;;;8.73;;
7965;SDS011;4028;43.272;26.932;2022-12-13T14:56:59;22.37;;;9.67;;
7965;SDS011;4028;43.272;26.932;2022-12-13T14:59:26;9.57;;;7.07;;
7965;SDS011;4028;43.272;26.932;2022-12-13T15:01:54;12.10;;;9.03;;
7965;SDS011;4028;43.272;26.932;2022-12-13T15:04:24;17.53;;;9.00;;
7965;SDS011;4028;43.272;26.932;2022-12-13T15:07:16;12.83;;;9.33;;
7965;SDS011;4028;43.272;26.932;2022-12-13T15:09:52;15.40;;;10.50;;
7965;SDS011;4028;43.272;26.932;2022-12-13T15:12:38;11.53;;;9.03;;
7965;SDS011;4028;43.272;26.932;2022-12-13T15:15:06;15.47;;;11.33;;
7965;SDS011;4028;43.272;26.932;2022-12-13T15:17:40;13.77;;;9.77;;
7965;SDS011;4028;43.272;26.932;2022-12-13T15:20:20;14.23;;;11.40;;
7965;SDS011;4028;43.272;26.932;2022-12-13T15:22:45;17.10;;;10.67;;
7965;SDS011;4028;43.272;26.932;2022-12-13T15:25:12;24.10;;;12.83;;
7965;SDS011;4028;43.272;26.932;2022-12-13T15:27:39;16.27;;;11.53;;
7965;SDS011;4028;43.272;26.932;2022-12-13T15:30:05;15.87;;;11.23;;
7965;SDS011;4028;43.272;26.932;2022-12-13T15:32:31;15.13;;;10.37;;
7965;SDS011;4028;43.272;26.932;2022-12-13T15:35:00;13.47;;;10.77;;
7965;SDS011;4028;43.272;26.932;2022-12-13T15:37:39;20.63;;;14.37;;
7965;SDS011;4028;43.272;26.932;2022-12-13T15:40:11;14.57;;;10.27;;
7965;SDS011;4028;43.272;26.932;2022-12-13T15:42:38;15.77;;;9.33;;
7965;SDS011;4028;43.272;26.932;2022-12-13T15:45:21;11.23;;;8.37;;
7965;SDS011;4028;43.272;26.932;2022-12-13T15:47:50;12.70;;;9.10;;
7965;SDS011;4028;43.272;26.932;2022-12-13T15:53:00;14.77;;;9.73;;
7965;SDS011;4028;43.272;26.932;2022-12-13T15:55:32;15.07;;;10.83;;
7965;SDS011;4028;43.272;26.932;2022-12-13T15:57:59;18.43;;;11.13;;
7965;SDS011;4028;43.272;26.932;2022-12-13T16:00:26;18.10;;;12.43;;
7965;SDS011;4028;43.272;26.932;2022-12-13T16:05:27;20.80;;;13.30;;
7965;SDS011;4028;43.272;26.932;2022-12-13T16:07:55;27.57;;;17.10;;
7965;SDS011;4028;43.272;26.932;2022-12-13T16:10:22;20.10;;;12.67;;
7965;SDS011;4028;43.272;26.932;2022-12-13T16:12:50;16.17;;;11.60;;
7965;SDS011;4028;43.272;26.932;2022-12-13T16:15:20;13.97;;;10.77;;
7965;SDS011;4028;43.272;26.932;2022-12-13T16:17:51;18.27;;;12.20;;
7965;SDS011;4028;43.272;26.932;2022-12-13T16:20:18;19.53;;;10.83;;
7965;SDS011;4028;43.272;26.932;2022-12-13T16:22:44;21.23;;;11.00;;
7965;SDS011;4028;43.272;26.932;2022-12-13T16:25:12;20.60;;;12.07;;
7965;SDS011;4028;43.272;26.932;2022-12-13T16:27:40;20.90;;;11.77;;
7965;SDS011;4028;43.272;26.932;2022-12-13T16:30:26;19.00;;;11.50;;
7965;SDS011;4028;43.272;26.932;2022-12-13T16:33:12;17.93;;;10.87;;
7965;SDS011;4028;43.272;26.932;2022-12-13T16:35:37;21.10;;;12.97;;
7965;SDS011;4028;43.272;26.932;2022-12-13T16:38:03;18.00;;;13.10;;
7965;SDS011;4028;43.272;26.932;2022-12-13T16:40:29;22.77;;;14.73;;
7965;SDS011;4028;43.272;26.932;2022-12-13T16:42:57;25.00;;;15.70;;
7965;SDS011;4028;43.272;26.932;2022-12-13T16:45:25;28.03;;;16.90;;
7965;SDS011;4028;43.272;26.932;2022-12-13T16:47:53;25.77;;;15.33;;
7965;SDS011;4028;43.272;26.932;2022-12-13T16:50:19;23.77;;;14.93;;
7965;SDS011;4028;43.272;26.932;2022-12-13T16:52:45;27.57;;;17.07;;
7965;SDS011;4028;43.272;26.932;2022-12-13T16:55:12;26.47;;;16.67;;
7965;SDS011;4028;43.272;26.932;2022-12-13T16:57:38;22.77;;;13.87;;
7965;SDS011;4028;43.272;26.932;2022-12-13T17:00:04;20.13;;;13.83;;
7965;SDS011;4028;43.272;26.932;2022-12-13T17:02:34;22.20;;;15.37;;
7965;SDS011;4028;43.272;26.932;2022-12-13T17:05:01;23.80;;;16.70;;
7965;SDS011;4028;43.272;26.932;2022-12-13T17:07:27;31.47;;;17.27;;
7965;SDS011;4028;43.272;26.932;2022-12-13T17:09:53;28.40;;;18.23;;
7965;SDS011;4028;43.272;26.932;2022-12-13T17:12:18;25.50;;;17.87;;
7965;SDS011;4028;43.272;26.932;2022-12-13T17:14:44;27.47;;;19.40;;
7965;SDS011;4028;43.272;26.932;2022-12-13T17:17:09;27.07;;;19.40;;
7965;SDS011;4028;43.272;26.932;2022-12-13T17:19:35;31.30;;;19.93;;
7965;SDS011;4028;43.272;26.932;2022-12-13T17:22:01;33.37;;;20.33;;
7965;SDS011;4028;43.272;26.932;2022-12-13T17:24:28;26.30;;;19.27;;